createdAt,value
2018-07-23T00:00:44.134Z,41.96
2018-07-23T00:03:10.787Z,42.00
2018-07-23T00:05:37.421Z,41.99
2018-07-23T00:08:04.059Z,42.15
2018-07-23T00:10:30.734Z,42.08
2018-07-23T00:12:57.482Z,42.06
2018-07-23T00:15:24.106Z,42.09
2018-07-23T00:17:50.740Z,42.10
2018-07-23T00:20:17.419Z,42.08
2018-07-23T00:22:44.097Z,42.00
2018-07-23T00:25:10.747Z,42.04
2018-07-23T00:27:37.372Z,42.17
2018-07-23T00:30:04.036Z,42.25
2018-07-23T00:32:30.668Z,42.13
2018-07-23T00:34:57.312Z,42.15
2018-07-23T00:37:24.033Z,42.15
2018-07-23T00:39:50.628Z,42.13
2018-07-23T00:42:17.272Z,42.19
2018-07-23T00:44:43.922Z,42.12
2018-07-23T00:47:10.552Z,42.32
2018-07-23T00:49:40.556Z,42.34
2018-07-23T00:52:07.220Z,42.29
2018-07-23T00:54:33.863Z,42.20
2018-07-23T00:57:00.511Z,42.27
2018-07-23T00:59:27.152Z,42.23
2018-07-23T01:01:53.798Z,42.27
2018-07-23T01:04:20.499Z,42.25
2018-07-23T01:06:47.110Z,42.36
2018-07-23T01:09:13.789Z,42.40
2018-07-23T01:11:40.454Z,42.43
2018-07-23T01:14:07.098Z,42.44
2018-07-23T01:16:33.776Z,42.41
2018-07-23T01:19:01.795Z,42.35
2018-07-23T01:21:27.041Z,42.43
2018-07-23T01:23:53.730Z,42.42
2018-07-23T01:26:20.371Z,42.44
2018-07-23T01:28:47.009Z,42.68
2018-07-23T01:31:13.728Z,42.57
2018-07-23T01:33:40.367Z,42.58
2018-07-23T01:36:07.034Z,42.50
2018-07-23T01:38:33.674Z,42.49
2018-07-23T01:41:00.318Z,42.53
2018-07-23T01:43:26.986Z,42.48
2018-07-23T01:45:53.663Z,42.48
2018-07-23T01:48:20.364Z,42.69
2018-07-23T01:50:47.034Z,42.71
2018-07-23T01:53:13.703Z,42.69
2018-07-23T01:55:40.335Z,42.65
2018-07-23T01:58:06.975Z,42.64
2018-07-23T02:00:33.633Z,42.67
2018-07-23T02:03:00.275Z,42.66
2018-07-23T02:05:26.939Z,42.60
2018-07-23T02:07:53.591Z,42.77
2018-07-23T02:10:20.212Z,42.85
2018-07-23T02:12:48.280Z,42.77
2018-07-23T02:15:13.585Z,42.74
2018-07-23T02:17:40.248Z,42.73
2018-07-23T02:20:06.843Z,42.76
2018-07-23T02:22:33.526Z,42.73
2018-07-23T02:25:00.167Z,42.71
2018-07-23T02:27:26.801Z,42.61
2018-07-23T02:29:53.443Z,42.92
2018-07-23T02:32:20.133Z,42.92
2018-07-23T02:34:46.761Z,42.88
2018-07-23T02:37:13.441Z,42.85
2018-07-23T02:39:40.098Z,42.83
2018-07-23T02:42:06.865Z,42.85
2018-07-23T02:44:33.548Z,42.83
2018-07-23T02:47:00.178Z,42.82
2018-07-23T02:49:26.812Z,42.75
2018-07-23T02:51:53.458Z,43.06
2018-07-23T02:54:20.128Z,43.02
2018-07-23T02:56:46.805Z,42.96
2018-07-23T02:59:13.455Z,42.92
2018-07-23T03:01:40.144Z,42.90
2018-07-23T03:04:06.772Z,42.95
2018-07-23T03:06:33.456Z,42.63
2018-07-23T03:09:00.096Z,43.55
2018-07-23T03:11:26.731Z,43.83
2018-07-23T03:13:53.353Z,44.28
2018-07-23T03:16:20.005Z,44.33
2018-07-23T03:18:46.641Z,44.33
2018-07-23T03:21:13.312Z,44.02
2018-07-23T03:23:39.945Z,44.05
2018-07-23T03:26:06.610Z,44.31
2018-07-23T03:28:33.255Z,44.39
2018-07-23T03:31:00.015Z,44.67
2018-07-23T03:33:26.667Z,44.66
2018-07-23T03:35:53.305Z,44.84
2018-07-23T03:38:19.998Z,45.26
2018-07-23T03:40:46.631Z,45.35
2018-07-23T03:43:13.265Z,45.08
2018-07-23T03:45:39.975Z,45.02
2018-07-23T03:48:06.662Z,44.98
2018-07-23T03:50:33.294Z,45.13
2018-07-23T03:52:59.933Z,45.18
2018-07-23T03:55:26.580Z,44.98
2018-07-23T03:57:53.231Z,44.87
2018-07-23T04:00:19.882Z,44.79
2018-07-23T04:02:46.552Z,45.22
2018-07-23T04:05:13.232Z,45.01
2018-07-23T04:07:39.870Z,45.02
2018-07-23T04:10:06.554Z,44.93
2018-07-23T04:12:33.169Z,44.82
2018-07-23T04:14:59.777Z,44.65
2018-07-23T04:17:26.448Z,44.47
2018-07-23T04:19:53.084Z,44.61
2018-07-23T04:22:19.772Z,44.51
2018-07-23T04:24:46.399Z,44.53
2018-07-23T04:27:13.099Z,44.39
2018-07-23T04:29:39.744Z,45.02
2018-07-23T04:32:06.378Z,45.02
2018-07-23T04:34:33.059Z,44.65
2018-07-23T04:36:59.726Z,44.56
2018-07-23T04:39:26.357Z,44.72
2018-07-23T04:41:53.047Z,45.09
2018-07-23T04:44:19.643Z,45.27
2018-07-23T04:46:46.283Z,45.20
2018-07-23T04:49:12.977Z,45.25
2018-07-23T04:51:39.597Z,44.54
2018-07-23T04:54:06.230Z,45.20
2018-07-23T04:56:32.903Z,45.35
2018-07-23T04:58:59.543Z,45.40
2018-07-23T05:01:26.149Z,45.25
2018-07-23T05:03:52.775Z,45.26
2018-07-23T05:06:19.411Z,45.16
2018-07-23T05:08:46.121Z,44.76
2018-07-23T05:11:12.728Z,44.22
2018-07-23T05:13:39.370Z,43.71
2018-07-23T05:16:06.132Z,43.44
2018-07-23T05:18:32.728Z,43.13
2018-07-23T05:20:59.364Z,42.59
2018-07-23T05:23:26.012Z,43.24
2018-07-23T05:25:52.652Z,42.98
2018-07-23T05:28:19.355Z,42.70
2018-07-23T05:30:46.078Z,42.67
2018-07-23T05:33:12.681Z,42.21
2018-07-23T05:35:39.356Z,41.96
2018-07-23T05:38:05.970Z,41.91
2018-07-23T05:40:32.642Z,41.64
2018-07-23T05:42:59.303Z,41.87
2018-07-23T05:45:25.954Z,42.10
2018-07-23T05:47:52.655Z,42.46
2018-07-23T05:50:19.336Z,42.82
2018-07-23T05:52:46.029Z,42.73
2018-07-23T05:55:12.669Z,43.15
2018-07-23T05:57:39.404Z,43.27
2018-07-23T06:00:05.981Z,43.20
2018-07-23T06:02:32.662Z,43.08
2018-07-23T06:04:59.299Z,43.15
2018-07-23T06:07:25.960Z,42.90
2018-07-23T06:09:52.716Z,42.58
2018-07-23T06:12:19.293Z,42.66
2018-07-23T06:14:46.073Z,42.49
2018-07-23T06:17:12.777Z,42.38
2018-07-23T06:19:39.450Z,42.17
2018-07-23T06:22:06.082Z,42.31
2018-07-23T06:24:32.731Z,41.98
2018-07-23T06:26:59.497Z,42.02
2018-07-23T06:29:26.137Z,41.56
2018-07-23T06:31:52.805Z,41.59
2018-07-23T06:34:19.447Z,41.71
2018-07-23T06:36:46.150Z,41.73
2018-07-23T06:39:12.786Z,41.58
2018-07-23T06:41:39.434Z,41.77
2018-07-23T06:44:06.102Z,42.01
2018-07-23T06:46:32.795Z,42.02
2018-07-23T06:48:59.428Z,41.83
2018-07-23T06:51:26.143Z,41.91
2018-07-23T06:53:52.745Z,42.43
2018-07-23T06:56:19.477Z,43.20
2018-07-23T06:58:46.101Z,43.66
2018-07-23T07:01:12.746Z,43.72
2018-07-23T07:03:39.386Z,43.65
2018-07-23T07:06:06.040Z,43.80
2018-07-23T07:08:32.691Z,43.81
2018-07-23T07:10:59.390Z,43.46
2018-07-23T07:13:26.027Z,43.03
2018-07-23T07:15:52.645Z,42.83
2018-07-23T07:18:19.329Z,42.40
2018-07-23T07:20:45.992Z,42.29
2018-07-23T07:23:12.628Z,42.22
2018-07-23T07:25:39.281Z,41.81
2018-07-23T07:28:05.910Z,41.63
2018-07-23T07:30:33.762Z,41.60
2018-07-23T07:33:00.493Z,41.63
2018-07-23T07:35:27.128Z,41.42
2018-07-23T07:37:53.821Z,41.08
2018-07-23T07:40:20.453Z,40.96
2018-07-23T07:42:47.119Z,41.00
2018-07-23T07:45:13.735Z,40.66
2018-07-23T07:47:40.399Z,40.70
2018-07-23T07:50:07.057Z,40.37
2018-07-23T07:52:33.686Z,40.46
2018-07-23T07:55:00.359Z,40.50
2018-07-23T07:57:27.034Z,40.31
2018-07-23T07:59:53.712Z,40.20
2018-07-23T08:02:20.379Z,40.12
2018-07-23T08:04:47.062Z,40.21
2018-07-23T08:07:14.068Z,40.08
2018-07-23T08:09:40.661Z,39.99
2018-07-23T08:12:07.302Z,39.95
2018-07-23T08:14:33.980Z,39.78
2018-07-23T08:17:00.619Z,39.64
2018-07-23T08:19:27.300Z,39.86
2018-07-23T08:21:53.954Z,39.43
2018-07-23T08:24:20.636Z,39.29
2018-07-23T08:26:47.277Z,39.39
2018-07-23T08:29:14.079Z,39.31
2018-07-23T08:31:40.838Z,38.99
2018-07-23T08:34:07.428Z,39.30
2018-07-23T08:36:34.155Z,39.10
2018-07-23T08:39:00.756Z,38.85
2018-07-23T08:41:27.450Z,39.10
2018-07-23T08:43:54.202Z,38.96
2018-07-23T08:46:20.839Z,38.73
2018-07-23T08:48:47.525Z,38.70
2018-07-23T08:51:14.156Z,38.61
2018-07-23T08:53:40.823Z,38.75
2018-07-23T08:56:07.527Z,38.57
2018-07-23T08:58:34.135Z,38.81
2018-07-23T09:01:00.813Z,38.69
2018-07-23T09:03:27.489Z,38.64
2018-07-23T09:05:54.133Z,38.69
2018-07-23T09:08:20.857Z,38.74
2018-07-23T09:10:47.445Z,39.36
2018-07-23T09:13:14.089Z,40.33
2018-07-23T09:15:40.735Z,41.08
2018-07-23T09:18:07.367Z,40.52
2018-07-23T09:20:34.011Z,40.05
2018-07-23T09:23:00.656Z,38.47
2018-07-23T09:25:27.285Z,38.42
2018-07-23T09:27:53.933Z,38.36
2018-07-23T09:30:20.607Z,38.91
2018-07-23T09:32:47.206Z,38.09
2018-07-23T09:35:13.854Z,38.76
2018-07-23T09:37:40.519Z,37.97
2018-07-23T09:40:07.152Z,37.73
2018-07-23T09:42:33.791Z,38.05
2018-07-23T09:45:00.430Z,38.24
2018-07-23T09:47:27.073Z,37.84
2018-07-23T09:49:53.713Z,37.60
2018-07-23T09:52:20.385Z,37.73
2018-07-23T09:54:47.034Z,37.40
2018-07-23T09:57:13.668Z,37.46
2018-07-23T09:59:40.361Z,37.37
2018-07-23T10:02:06.992Z,37.07
2018-07-23T10:04:33.635Z,37.50
2018-07-23T10:07:00.274Z,37.46
2018-07-23T10:09:26.917Z,38.08
2018-07-23T10:11:53.567Z,38.70
2018-07-23T10:14:20.210Z,38.98
2018-07-23T10:16:46.861Z,40.04
2018-07-23T10:19:13.535Z,40.08
2018-07-23T10:21:40.193Z,38.27
2018-07-23T10:24:06.864Z,38.18
2018-07-23T10:26:33.697Z,38.10
2018-07-23T10:29:00.441Z,38.02
2018-07-23T10:31:27.091Z,37.45
2018-07-23T10:33:53.787Z,37.40
2018-07-23T10:36:20.423Z,37.47
2018-07-23T10:38:47.075Z,37.51
2018-07-23T10:41:13.737Z,37.21
2018-07-23T10:43:40.372Z,37.66
2018-07-23T10:46:07.002Z,38.92
2018-07-23T10:48:33.667Z,38.26
2018-07-23T10:51:00.387Z,37.82
2018-07-23T10:53:26.987Z,37.40
2018-07-23T10:55:53.612Z,37.47
2018-07-23T10:58:20.261Z,36.97
2018-07-23T11:00:47.212Z,36.80
2018-07-23T11:03:13.851Z,37.08
2018-07-23T11:05:40.529Z,36.71
2018-07-23T11:08:07.228Z,36.73
2018-07-23T11:10:33.865Z,36.90
2018-07-23T11:13:00.532Z,36.96
2018-07-23T11:15:27.167Z,37.14
2018-07-23T11:17:53.828Z,37.18
2018-07-23T11:20:20.510Z,37.17
2018-07-23T11:22:47.168Z,37.20
2018-07-23T11:25:38.703Z,37.23
2018-07-23T11:27:40.470Z,37.22
2018-07-23T11:30:07.151Z,37.00
2018-07-23T11:32:33.833Z,37.30
2018-07-23T11:35:00.480Z,37.49
2018-07-23T11:37:27.178Z,37.60
2018-07-23T11:39:53.826Z,37.67
2018-07-23T11:42:20.465Z,37.59
2018-07-23T11:44:47.132Z,37.59
2018-07-23T11:47:13.817Z,37.70
2018-07-23T11:49:40.471Z,37.93
2018-07-23T11:52:14.355Z,37.75
2018-07-23T11:54:33.784Z,37.95
2018-07-23T11:57:00.492Z,37.62
2018-07-23T11:59:27.065Z,37.87
2018-07-23T12:01:53.779Z,37.83
2018-07-23T12:04:20.467Z,37.82
2018-07-23T12:06:47.022Z,37.71
2018-07-23T12:09:13.724Z,37.48
2018-07-23T12:11:40.367Z,37.72
2018-07-23T12:14:07.020Z,37.56
2018-07-23T12:16:33.670Z,37.78
2018-07-23T12:19:00.340Z,37.80
2018-07-23T12:21:26.980Z,37.79
2018-07-23T12:23:53.641Z,37.98
2018-07-23T12:26:20.284Z,38.21
2018-07-23T12:28:46.930Z,38.15
2018-07-23T12:31:13.566Z,38.06
2018-07-23T12:33:40.215Z,38.18
2018-07-23T12:36:06.863Z,38.06
2018-07-23T12:38:33.507Z,38.17
2018-07-23T12:41:00.173Z,38.23
2018-07-23T12:43:26.815Z,38.00
2018-07-23T12:45:53.463Z,38.06
2018-07-23T12:48:20.092Z,38.20
2018-07-23T12:50:46.737Z,38.20
2018-07-23T12:53:13.392Z,38.07
2018-07-23T12:55:40.035Z,38.20
2018-07-23T12:58:06.677Z,38.13
2018-07-23T13:00:33.312Z,38.15
2018-07-23T13:02:59.959Z,38.12
2018-07-23T13:05:26.614Z,38.14
2018-07-23T13:07:53.247Z,38.33
2018-07-23T13:10:19.927Z,38.16
2018-07-23T13:12:46.531Z,38.16
2018-07-23T13:15:13.201Z,38.32
2018-07-23T13:17:39.848Z,38.11
2018-07-23T13:20:06.485Z,38.35
2018-07-23T13:22:33.124Z,38.19
2018-07-23T13:24:59.768Z,38.18
2018-07-23T13:27:26.434Z,37.96
2018-07-23T13:29:53.073Z,38.15
2018-07-23T13:32:19.776Z,38.25
2018-07-23T13:34:46.449Z,38.21
2018-07-23T13:37:13.190Z,38.03
2018-07-23T13:39:39.827Z,38.13
2018-07-23T13:42:06.469Z,38.25
2018-07-23T13:44:33.205Z,38.11
2018-07-23T13:46:59.899Z,38.10
2018-07-23T13:49:26.545Z,38.14
2018-07-23T13:51:53.231Z,38.48
2018-07-23T13:54:19.925Z,38.21
2018-07-23T13:56:46.534Z,38.33
2018-07-23T13:59:13.165Z,38.25
2018-07-23T14:01:39.844Z,38.22
2018-07-23T14:04:06.448Z,38.29
2018-07-23T14:06:33.191Z,37.96
2018-07-23T14:08:59.795Z,38.01
2018-07-23T14:11:26.434Z,38.20
2018-07-23T14:13:53.113Z,38.08
2018-07-23T14:16:19.751Z,37.94
2018-07-23T14:18:46.414Z,38.11
2018-07-23T14:21:13.075Z,37.85
2018-07-23T14:23:39.755Z,37.92
2018-07-23T14:26:06.473Z,38.24
2018-07-23T14:28:33.143Z,38.03
2018-07-23T14:30:59.749Z,37.93
2018-07-23T14:33:26.388Z,38.17
2018-07-23T14:35:53.026Z,38.22
2018-07-23T14:38:19.683Z,38.41
2018-07-23T14:40:46.344Z,38.32
2018-07-23T14:43:12.996Z,38.29
2018-07-23T14:45:39.652Z,38.47
2018-07-23T14:48:06.294Z,38.49
2018-07-23T14:50:32.923Z,38.29
2018-07-23T14:52:59.567Z,38.32
2018-07-23T14:55:26.237Z,39.44
2018-07-23T14:57:53.027Z,39.98
2018-07-23T15:00:19.662Z,40.07
2018-07-23T15:02:46.297Z,39.90
2018-07-23T15:05:12.946Z,40.28
2018-07-23T15:07:39.582Z,40.15
2018-07-23T15:10:06.214Z,39.89
2018-07-23T15:12:32.874Z,39.99
2018-07-23T15:14:59.558Z,39.37
2018-07-23T15:17:26.231Z,39.21
2018-07-23T15:19:52.832Z,40.46
2018-07-23T15:22:19.584Z,41.21
2018-07-23T15:24:46.181Z,40.97
2018-07-23T15:27:12.819Z,41.21
2018-07-23T15:29:39.451Z,41.11
2018-07-23T15:32:06.089Z,40.82
2018-07-23T15:34:32.739Z,40.24
2018-07-23T15:36:59.407Z,40.05
2018-07-23T15:39:26.058Z,41.10
2018-07-23T15:41:52.694Z,41.65
2018-07-23T15:44:19.426Z,41.73
2018-07-23T15:46:45.966Z,41.58
2018-07-23T15:49:12.605Z,41.60
2018-07-23T15:51:39.269Z,41.33
2018-07-23T15:54:05.895Z,41.09
2018-07-23T15:56:32.528Z,40.91
2018-07-23T15:58:59.203Z,40.87
2018-07-23T16:01:26.225Z,40.79
2018-07-23T16:03:52.874Z,41.26
2018-07-23T16:06:19.548Z,41.56
2018-07-23T16:08:46.194Z,40.41
2018-07-23T16:11:12.797Z,40.70
2018-07-23T16:13:39.429Z,41.74
2018-07-23T16:16:06.067Z,42.73
2018-07-23T16:18:32.706Z,42.94
2018-07-23T16:20:59.339Z,42.64
2018-07-23T16:23:25.982Z,42.23
2018-07-23T16:25:53.913Z,42.23
2018-07-23T16:28:19.259Z,42.22
2018-07-23T16:30:45.915Z,42.22
2018-07-23T16:33:12.568Z,42.18
2018-07-23T16:35:39.199Z,42.09
2018-07-23T16:38:05.860Z,42.10
2018-07-23T16:40:32.472Z,42.10
2018-07-23T16:42:59.125Z,42.09
2018-07-23T16:45:25.745Z,42.16
2018-07-23T16:47:52.453Z,42.13
2018-07-23T16:50:19.066Z,42.11
2018-07-23T16:52:45.692Z,42.21
2018-07-23T16:55:12.373Z,42.08
2018-07-23T16:57:38.998Z,42.37
2018-07-23T17:00:05.639Z,42.30
2018-07-23T17:02:32.277Z,42.21
2018-07-23T17:04:58.941Z,42.20
2018-07-23T17:07:25.619Z,42.28
2018-07-23T17:09:52.262Z,42.11
2018-07-23T17:12:18.931Z,42.26
2018-07-23T17:14:45.567Z,42.27
2018-07-23T17:17:12.200Z,42.33
2018-07-23T17:19:38.880Z,42.39
2018-07-23T17:22:05.517Z,42.47
2018-07-23T17:24:32.143Z,42.47
2018-07-23T17:26:58.793Z,42.52
2018-07-23T17:29:25.468Z,42.19
2018-07-23T17:31:52.100Z,42.23
2018-07-23T17:34:18.736Z,42.36
2018-07-23T17:36:45.361Z,42.55
2018-07-23T17:39:12.051Z,42.62
2018-07-23T17:41:38.666Z,42.61
2018-07-23T17:44:05.288Z,42.63
2018-07-23T17:46:31.931Z,42.61
2018-07-23T17:48:58.565Z,42.64
2018-07-23T17:51:25.218Z,42.58
2018-07-23T17:53:51.851Z,42.66
2018-07-23T17:56:18.538Z,42.73
2018-07-23T17:58:45.145Z,42.77
2018-07-23T18:01:11.782Z,42.75
2018-07-23T18:03:38.429Z,42.74
2018-07-23T18:06:05.063Z,42.84
2018-07-23T18:08:31.696Z,42.84
2018-07-23T18:10:58.321Z,42.87
2018-07-23T18:13:25.022Z,42.88
2018-07-23T18:15:51.666Z,42.86
2018-07-23T18:18:18.284Z,42.90
2018-07-23T18:20:44.955Z,42.82
2018-07-23T18:23:11.581Z,42.86
2018-07-23T18:25:38.208Z,42.88
2018-07-23T18:28:04.839Z,42.91
2018-07-23T18:30:31.476Z,42.95
2018-07-23T18:32:58.173Z,42.99
2018-07-23T18:35:24.805Z,42.94
2018-07-23T18:37:51.473Z,43.02
2018-07-23T18:40:18.076Z,43.03
2018-07-23T18:42:44.773Z,43.03
2018-07-23T18:45:11.349Z,43.08
2018-07-23T18:47:38.039Z,43.14
2018-07-23T18:50:04.652Z,43.15
2018-07-23T18:52:31.307Z,43.16
2018-07-23T18:54:57.981Z,43.07
2018-07-23T18:57:24.582Z,43.08
2018-07-23T18:59:51.294Z,43.17
2018-07-23T19:02:17.882Z,43.22
2018-07-23T19:04:44.508Z,43.17
2018-07-23T19:07:11.143Z,43.27
2018-07-23T19:09:37.779Z,43.26
2018-07-23T19:12:04.445Z,43.30
2018-07-23T19:14:31.075Z,43.33
2018-07-23T19:16:57.707Z,43.35
2018-07-23T19:19:24.368Z,43.32
2018-07-23T19:21:51.034Z,43.35
2018-07-23T19:24:17.682Z,43.39
2018-07-23T19:26:44.383Z,43.37
2018-07-23T19:29:10.983Z,43.40
2018-07-23T19:31:37.615Z,43.42
2018-07-23T19:34:04.248Z,43.47
2018-07-23T19:36:30.950Z,43.50
2018-07-23T19:38:57.597Z,43.52
2018-07-23T19:41:24.296Z,43.56
2018-07-23T19:43:50.893Z,43.57
2018-07-23T19:46:17.552Z,43.60
2018-07-23T19:48:44.192Z,43.64
2018-07-23T19:51:10.827Z,43.59
2018-07-23T19:53:37.468Z,43.61
2018-07-23T19:56:04.157Z,43.73
2018-07-23T19:58:30.825Z,43.69
2018-07-23T20:00:57.465Z,43.76
2018-07-23T20:03:24.143Z,43.76
2018-07-23T20:05:50.779Z,43.79
2018-07-23T20:08:18.094Z,43.78
2018-07-23T20:10:44.732Z,43.82
2018-07-23T20:13:11.366Z,43.85
2018-07-23T20:15:38.009Z,43.87
2018-07-23T20:18:04.685Z,43.91
2018-07-23T20:20:31.325Z,43.91
2018-07-23T20:22:57.960Z,43.92
2018-07-23T20:25:24.596Z,43.88
2018-07-23T20:27:51.235Z,43.96
2018-07-23T20:30:17.878Z,43.91
2018-07-23T20:32:44.516Z,43.98
2018-07-23T20:35:11.252Z,43.91
2018-07-23T20:37:37.839Z,43.94
2018-07-23T20:40:04.512Z,44.03
2018-07-23T20:42:31.191Z,43.89
2018-07-23T20:44:57.829Z,43.99
2018-07-23T20:47:24.472Z,44.03
2018-07-23T20:49:51.133Z,44.06
2018-07-23T20:52:17.832Z,44.12
2018-07-23T20:54:44.460Z,44.11
2018-07-23T20:57:11.093Z,44.05
2018-07-23T20:59:37.889Z,44.09
2018-07-23T21:02:04.526Z,44.20
2018-07-23T21:04:31.161Z,44.10
2018-07-23T21:06:57.844Z,44.22
2018-07-23T21:09:24.519Z,44.22
2018-07-23T21:11:51.148Z,44.17
2018-07-23T21:14:17.792Z,44.17
2018-07-23T21:16:44.429Z,44.17
2018-07-23T21:19:11.065Z,44.30
2018-07-23T21:21:37.704Z,44.35
2018-07-23T21:24:04.342Z,44.25
2018-07-23T21:26:30.979Z,44.28
2018-07-23T21:28:57.620Z,44.39
2018-07-23T21:31:24.243Z,44.39
2018-07-23T21:33:50.892Z,44.38
2018-07-23T21:36:17.565Z,44.29
2018-07-23T21:38:44.211Z,44.39
2018-07-23T21:41:10.891Z,44.37
2018-07-23T21:43:37.514Z,44.40
2018-07-23T21:46:04.152Z,44.47
2018-07-23T21:48:30.821Z,44.43
2018-07-23T21:50:57.460Z,44.45
2018-07-23T21:53:24.094Z,44.47
2018-07-23T21:55:50.731Z,44.54
2018-07-23T21:58:17.372Z,44.56
2018-07-23T22:00:44.120Z,44.61
2018-07-23T22:03:10.645Z,44.63
2018-07-23T22:05:37.315Z,44.62
2018-07-23T22:08:03.994Z,44.61
2018-07-23T22:10:30.660Z,44.63
2018-07-23T22:12:57.345Z,44.61
2018-07-23T22:15:23.890Z,44.66
2018-07-23T22:17:50.532Z,44.64
2018-07-23T22:20:17.210Z,44.66
2018-07-23T22:22:43.847Z,44.67
2018-07-23T22:25:10.513Z,44.70
2018-07-23T22:27:37.191Z,44.63
2018-07-23T22:30:03.833Z,44.74
2018-07-23T22:32:30.518Z,44.79
2018-07-23T22:34:57.140Z,44.81
2018-07-23T22:37:23.770Z,44.83
2018-07-23T22:39:50.406Z,44.81
2018-07-23T22:42:17.051Z,44.84
2018-07-23T22:44:43.687Z,44.80
2018-07-23T22:47:10.324Z,44.82
2018-07-23T22:49:37.005Z,44.81
2018-07-23T22:52:03.645Z,44.85
2018-07-23T22:54:30.287Z,44.81
2018-07-23T22:56:56.946Z,44.79
2018-07-23T22:59:23.582Z,44.80
2018-07-23T23:01:50.229Z,44.88
2018-07-23T23:04:16.857Z,44.87
2018-07-23T23:06:43.494Z,44.80
2018-07-23T23:09:10.132Z,44.88
2018-07-23T23:11:36.805Z,44.87
2018-07-23T23:14:03.441Z,44.85
2018-07-23T23:16:30.076Z,44.89
2018-07-23T23:18:56.751Z,44.92
2018-07-23T23:21:23.396Z,44.93
2018-07-23T23:23:50.068Z,44.95
2018-07-23T23:26:16.739Z,44.95
2018-07-23T23:28:43.445Z,44.92
2018-07-23T23:31:10.041Z,45.08
2018-07-23T23:33:36.715Z,45.03
2018-07-23T23:36:03.352Z,45.04
2018-07-23T23:38:29.989Z,44.98
2018-07-23T23:40:56.626Z,45.07
2018-07-23T23:43:23.303Z,45.01
2018-07-23T23:45:49.931Z,45.04
2018-07-23T23:48:16.621Z,45.04
2018-07-23T23:50:43.308Z,44.96
2018-07-23T23:53:09.945Z,45.06
2018-07-23T23:55:36.627Z,45.02
2018-07-23T23:58:03.265Z,45.12
